createdAt,value
2022-11-25T00:00:21.624Z,7.10
2022-11-25T00:00:53.610Z,8.10
2022-11-25T00:01:26.569Z,6.47
2022-11-25T00:01:58.593Z,8.03
2022-11-25T00:02:30.675Z,7.37
2022-11-25T00:03:03.738Z,10.77
2022-11-25T00:03:36.266Z,9.20
2022-11-25T00:04:08.457Z,6.93
2022-11-25T00:04:40.416Z,8.30
2022-11-25T00:05:12.396Z,9.03
2022-11-25T00:05:44.425Z,8.10
2022-11-25T00:06:20.743Z,8.47
2022-11-25T00:06:52.738Z,7.43
2022-11-25T00:07:24.785Z,10.17
2022-11-25T00:07:56.830Z,7.77
2022-11-25T00:08:28.876Z,11.13
2022-11-25T00:09:04.111Z,8.03
2022-11-25T00:09:36.165Z,6.70
2022-11-25T00:10:08.347Z,8.17
2022-11-25T00:10:40.352Z,8.20
2022-11-25T00:11:12.748Z,6.97
2022-11-25T00:11:44.756Z,11.60
2022-11-25T00:12:16.772Z,6.80
2022-11-25T00:12:48.774Z,7.73
2022-11-25T00:13:20.733Z,8.07
2022-11-25T00:13:53.036Z,9.17
2022-11-25T00:14:25.012Z,6.60
2022-11-25T00:14:57.240Z,8.03
2022-11-25T00:15:29.282Z,7.00
2022-11-25T00:16:05.503Z,8.73
2022-11-25T00:16:37.704Z,9.13
2022-11-25T00:17:09.698Z,6.77
2022-11-25T00:17:41.694Z,6.83
2022-11-25T00:18:13.680Z,8.27
2022-11-25T00:18:50.219Z,7.77
2022-11-25T00:19:22.210Z,10.53
2022-11-25T00:19:54.259Z,8.13
2022-11-25T00:20:26.224Z,10.57
2022-11-25T00:20:58.806Z,7.73
2022-11-25T00:21:32.596Z,5.77
2022-11-25T00:22:04.604Z,6.80
2022-11-25T00:22:37.035Z,5.97
2022-11-25T00:23:09.097Z,7.87
2022-11-25T00:23:41.119Z,8.63
2022-11-25T00:24:14.056Z,7.10
2022-11-25T00:24:46.045Z,9.23
2022-11-25T00:25:18.040Z,7.10
2022-11-25T00:25:50.036Z,6.27
2022-11-25T00:26:22.480Z,8.23
2022-11-25T00:26:54.482Z,8.87
2022-11-25T00:27:26.460Z,8.30
2022-11-25T00:27:58.398Z,9.37
2022-11-25T00:28:30.373Z,7.80
2022-11-25T00:29:03.973Z,8.07
2022-11-25T00:29:35.917Z,6.47
2022-11-25T00:30:08.110Z,9.83
2022-11-25T00:30:40.115Z,6.60
2022-11-25T00:31:13.452Z,5.83
2022-11-25T00:31:45.596Z,8.27
2022-11-25T00:32:17.692Z,7.77
2022-11-25T00:32:49.674Z,7.87
2022-11-25T00:33:21.630Z,7.37
2022-11-25T00:33:53.612Z,8.23
2022-11-25T00:34:26.076Z,7.63
2022-11-25T00:34:58.007Z,6.70
2022-11-25T00:35:29.940Z,7.00
2022-11-25T00:36:02.588Z,6.80
2022-11-25T00:36:35.864Z,6.40
2022-11-25T00:37:07.866Z,5.33
2022-11-25T00:37:39.820Z,8.23
2022-11-25T00:38:12.274Z,9.90
2022-11-25T00:38:44.708Z,7.47
2022-11-25T00:39:17.269Z,6.87
2022-11-25T00:39:49.309Z,8.03
2022-11-25T00:40:21.382Z,7.43
2022-11-25T00:41:13.378Z,7.40
2022-11-25T00:42:04.972Z,7.23
2022-11-25T00:42:55.380Z,7.03
2022-11-25T00:43:46.858Z,8.57
2022-11-25T00:44:39.550Z,6.53
2022-11-25T00:45:11.954Z,7.00
2022-11-25T00:45:43.989Z,7.20
2022-11-25T00:46:16.040Z,7.77
2022-11-25T00:46:48.052Z,7.97
2022-11-25T00:47:20.802Z,6.20
2022-11-25T00:47:53.150Z,6.37
2022-11-25T00:48:25.139Z,8.53
2022-11-25T00:48:57.164Z,6.33
2022-11-25T00:49:30.134Z,9.13
2022-11-25T00:50:02.169Z,10.03
2022-11-25T00:50:34.128Z,8.73
2022-11-25T00:51:06.119Z,8.10
2022-11-25T00:51:38.131Z,8.90
2022-11-25T00:52:12.971Z,6.03
2022-11-25T00:52:44.936Z,9.27
2022-11-25T00:53:17.513Z,7.97
2022-11-25T00:53:50.834Z,5.90
2022-11-25T00:54:24.470Z,6.60
2022-11-25T00:54:56.433Z,8.20
2022-11-25T00:55:48.347Z,8.63
2022-11-25T00:56:20.430Z,9.37
2022-11-25T00:56:52.918Z,7.70
2022-11-25T00:57:24.990Z,8.43
2022-11-25T00:57:57.166Z,6.37
2022-11-25T00:58:29.127Z,8.17
2022-11-25T00:59:01.120Z,6.07
2022-11-25T00:59:33.137Z,7.90
2022-11-25T01:00:05.818Z,7.33
2022-11-25T01:00:37.845Z,5.77
2022-11-25T01:01:10.588Z,6.13
2022-11-25T01:01:42.586Z,7.27
2022-11-25T01:02:15.457Z,8.30
2022-11-25T01:02:49.270Z,7.40
2022-11-25T01:03:21.302Z,4.33
2022-11-25T01:03:53.533Z,7.03
2022-11-25T01:04:25.658Z,5.93
2022-11-25T01:04:58.831Z,7.93
2022-11-25T01:05:30.819Z,10.97
2022-11-25T01:06:08.342Z,8.27
2022-11-25T01:06:40.347Z,6.60
2022-11-25T01:07:12.539Z,6.37
2022-11-25T01:07:44.650Z,7.57
2022-11-25T01:08:16.705Z,5.83
2022-11-25T01:08:48.734Z,6.53
2022-11-25T01:09:20.756Z,7.90
2022-11-25T01:09:52.811Z,6.87
2022-11-25T01:10:24.824Z,9.93
2022-11-25T01:11:05.501Z,6.50
2022-11-25T01:11:37.510Z,6.20
2022-11-25T01:12:09.514Z,8.50
2022-11-25T01:12:41.431Z,9.93
2022-11-25T01:13:13.402Z,6.87
2022-11-25T01:13:45.433Z,8.17
2022-11-25T01:14:17.854Z,7.57
2022-11-25T01:14:52.014Z,6.97
2022-11-25T01:15:23.977Z,8.63
2022-11-25T01:15:56.010Z,7.23
2022-11-25T01:16:29.243Z,6.87
2022-11-25T01:17:01.311Z,7.93
2022-11-25T01:17:33.285Z,9.43
2022-11-25T01:18:05.255Z,7.80
2022-11-25T01:18:38.114Z,6.73
2022-11-25T01:19:11.274Z,7.97
2022-11-25T01:19:44.329Z,9.10
2022-11-25T01:20:16.766Z,7.93
2022-11-25T01:20:48.827Z,7.00
2022-11-25T01:21:22.361Z,8.70
2022-11-25T01:21:54.354Z,7.90
2022-11-25T01:22:26.407Z,6.40
2022-11-25T01:22:58.395Z,8.13
2022-11-25T01:23:33.528Z,6.93
2022-11-25T01:24:06.319Z,7.20
2022-11-25T01:24:39.207Z,7.10
2022-11-25T01:25:11.234Z,9.23
2022-11-25T01:25:43.218Z,8.43
2022-11-25T01:26:19.896Z,10.03
2022-11-25T01:26:53.774Z,7.63
2022-11-25T01:27:27.362Z,5.67
2022-11-25T01:27:59.345Z,7.60
2022-11-25T01:28:32.061Z,7.50
2022-11-25T01:29:05.363Z,5.53
2022-11-25T01:29:41.497Z,8.87
2022-11-25T01:30:14.561Z,9.37
2022-11-25T01:30:46.572Z,7.37
2022-11-25T01:31:19.725Z,6.10
2022-11-25T01:31:54.261Z,5.97
2022-11-25T01:32:26.356Z,7.03
2022-11-25T01:32:58.724Z,7.47
2022-11-25T01:33:32.694Z,9.40
2022-11-25T01:34:07.014Z,7.07
2022-11-25T01:34:40.637Z,9.27
2022-11-25T01:35:12.625Z,8.43
2022-11-25T01:35:44.572Z,5.10
2022-11-25T01:36:17.565Z,5.97
2022-11-25T01:36:49.642Z,8.27
2022-11-25T01:37:21.645Z,9.30
2022-11-25T01:37:53.626Z,7.77
2022-11-25T01:38:25.596Z,8.10
2022-11-25T01:38:59.222Z,7.63
2022-11-25T01:39:33.164Z,8.00
2022-11-25T01:40:06.168Z,8.60
2022-11-25T01:40:38.076Z,7.57
2022-11-25T01:41:12.052Z,8.33
2022-11-25T01:41:44.500Z,6.17
2022-11-25T01:42:17.398Z,8.37
2022-11-25T01:42:49.428Z,8.03
2022-11-25T01:43:21.415Z,8.60
2022-11-25T01:44:08.788Z,9.73
2022-11-25T01:44:41.387Z,10.43
2022-11-25T01:45:23.763Z,7.60
2022-11-25T01:45:59.596Z,6.93
2022-11-25T01:46:38.314Z,5.23
2022-11-25T01:47:15.947Z,7.17
2022-11-25T01:47:48.522Z,6.67
2022-11-25T01:48:24.941Z,7.67
2022-11-25T01:49:05.707Z,7.23
2022-11-25T01:49:42.702Z,10.67
2022-11-25T01:50:16.648Z,6.97
2022-11-25T01:50:49.358Z,6.10
2022-11-25T01:51:27.903Z,9.13
2022-11-25T01:52:02.815Z,8.20
2022-11-25T01:52:38.024Z,6.40
2022-11-25T01:53:11.904Z,9.63
2022-11-25T01:53:44.044Z,6.20
2022-11-25T01:54:17.590Z,7.87
2022-11-25T01:54:52.854Z,7.33
2022-11-25T01:55:27.334Z,8.73
2022-11-25T01:56:02.457Z,10.00
2022-11-25T01:56:36.087Z,5.60
2022-11-25T01:57:15.269Z,8.57
2022-11-25T01:57:50.754Z,6.90
2022-11-25T01:58:26.857Z,11.60
2022-11-25T01:58:59.474Z,9.03
2022-11-25T01:59:33.516Z,6.97
2022-11-25T02:00:10.247Z,5.93
2022-11-25T02:00:52.571Z,6.30
2022-11-25T02:01:24.753Z,6.27
2022-11-25T02:01:57.199Z,6.90
2022-11-25T02:02:29.720Z,6.80
2022-11-25T02:03:01.798Z,8.80
2022-11-25T02:03:36.991Z,7.73
2022-11-25T02:04:09.808Z,7.67
2022-11-25T02:04:42.101Z,9.50
2022-11-25T02:05:17.014Z,9.03
2022-11-25T02:06:00.498Z,7.30
2022-11-25T02:06:37.687Z,6.50
2022-11-25T02:07:12.594Z,12.90
2022-11-25T02:07:46.281Z,10.20
2022-11-25T02:08:19.400Z,8.50
2022-11-25T02:08:55.900Z,8.17
2022-11-25T02:09:28.017Z,9.13
2022-11-25T02:10:00.533Z,7.40
2022-11-25T02:10:33.161Z,6.93
2022-11-25T02:11:07.637Z,4.90
2022-11-25T02:11:40.319Z,6.03
2022-11-25T02:12:14.117Z,8.23
2022-11-25T02:12:46.531Z,7.07
2022-11-25T02:13:18.503Z,7.33
2022-11-25T02:13:51.501Z,6.73
2022-11-25T02:14:23.639Z,8.43
2022-11-25T02:14:58.701Z,7.30
2022-11-25T02:15:33.344Z,7.37
2022-11-25T02:16:05.540Z,7.27
2022-11-25T02:16:37.711Z,8.03
2022-11-25T02:17:09.891Z,6.10
2022-11-25T02:17:42.997Z,7.60
2022-11-25T02:18:15.278Z,6.80
2022-11-25T02:18:47.288Z,6.63
2022-11-25T02:19:23.767Z,7.47
2022-11-25T02:19:58.643Z,8.30
2022-11-25T02:20:31.681Z,8.97
2022-11-25T02:21:05.044Z,9.97
2022-11-25T02:21:40.555Z,5.80
2022-11-25T02:22:15.997Z,9.80
2022-11-25T02:23:00.364Z,7.00
2022-11-25T02:23:51.403Z,4.77
2022-11-25T02:24:34.807Z,6.37
2022-11-25T02:25:10.735Z,7.30
2022-11-25T02:25:43.478Z,8.20
2022-11-25T02:26:18.843Z,6.67
2022-11-25T02:26:54.167Z,7.83
2022-11-25T02:27:27.582Z,6.00
2022-11-25T02:28:19.286Z,8.83
2022-11-25T02:28:51.444Z,7.03
2022-11-25T02:29:23.713Z,8.60
2022-11-25T02:29:55.848Z,7.13
2022-11-25T02:30:27.977Z,6.57
2022-11-25T02:31:00.099Z,6.70
2022-11-25T02:31:32.202Z,6.53
2022-11-25T02:32:05.924Z,6.90
2022-11-25T02:32:42.733Z,6.20
2022-11-25T02:33:15.386Z,5.90
2022-11-25T02:33:47.697Z,5.00
2022-11-25T02:34:21.211Z,5.50
2022-11-25T02:34:53.527Z,7.63
2022-11-25T02:35:28.135Z,8.70
2022-11-25T02:36:01.789Z,7.40
2022-11-25T02:36:34.811Z,6.67
2022-11-25T02:37:06.758Z,10.77
2022-11-25T02:37:38.841Z,5.93
2022-11-25T02:38:25.015Z,7.37
2022-11-25T02:38:58.233Z,6.80
2022-11-25T02:39:31.585Z,5.20
2022-11-25T02:40:03.783Z,8.17
2022-11-25T02:40:53.755Z,7.87
2022-11-25T02:41:30.914Z,6.37
2022-11-25T02:42:05.627Z,6.67
2022-11-25T02:42:38.659Z,7.57
2022-11-25T02:43:10.672Z,8.77
2022-11-25T02:43:44.073Z,7.03
2022-11-25T02:44:16.070Z,6.43
2022-11-25T02:44:48.835Z,5.70
2022-11-25T02:45:23.129Z,5.20
2022-11-25T02:45:59.813Z,7.07
2022-11-25T02:46:32.176Z,5.83
2022-11-25T02:47:06.725Z,5.47
2022-11-25T02:47:38.892Z,6.33
2022-11-25T02:48:10.882Z,7.70
2022-11-25T02:49:34.954Z,6.00
2022-11-25T02:50:07.413Z,6.07
2022-11-25T02:50:39.615Z,6.97
2022-11-25T02:51:14.202Z,7.37
2022-11-25T02:51:46.370Z,4.90
2022-11-25T02:52:18.367Z,4.70
2022-11-25T02:52:50.551Z,5.00
2022-11-25T02:53:23.148Z,6.00
2022-11-25T02:53:59.515Z,7.90
2022-11-25T02:54:32.609Z,5.37
2022-11-25T02:55:06.612Z,7.17
2022-11-25T02:55:38.668Z,5.23
2022-11-25T02:56:12.582Z,6.93
2022-11-25T02:56:44.601Z,8.57
2022-11-25T02:57:16.634Z,9.67
2022-11-25T02:57:48.610Z,6.77
2022-11-25T02:58:20.670Z,7.40
2022-11-25T02:58:52.730Z,7.97
2022-11-25T02:59:24.716Z,5.47
2022-11-25T02:59:56.771Z,5.73
2022-11-25T03:00:28.747Z,5.03
2022-11-25T03:01:00.709Z,7.63
2022-11-25T03:01:33.342Z,6.77
2022-11-25T03:02:05.543Z,3.40
2022-11-25T03:02:37.805Z,7.47
2022-11-25T03:03:10.109Z,5.17
2022-11-25T03:03:42.116Z,6.70
2022-11-25T03:04:14.195Z,6.40
2022-11-25T03:04:46.185Z,5.60
2022-11-25T03:05:18.160Z,4.80
2022-11-25T03:05:50.150Z,4.67
2022-11-25T03:06:22.157Z,6.07
2022-11-25T03:06:54.124Z,5.47
2022-11-25T03:07:26.168Z,7.07
2022-11-25T03:07:58.314Z,5.47
2022-11-25T03:08:30.553Z,4.37
2022-11-25T03:09:03.203Z,4.77
2022-11-25T03:09:35.941Z,5.70
2022-11-25T03:10:08.162Z,4.67
2022-11-25T03:10:40.677Z,6.33
2022-11-25T03:11:12.653Z,6.00
2022-11-25T03:12:03.121Z,4.37
2022-11-25T03:12:35.143Z,4.13
2022-11-25T03:13:07.718Z,5.37
2022-11-25T03:13:39.712Z,6.37
2022-11-25T03:14:12.372Z,5.17
2022-11-25T03:14:44.357Z,4.50
2022-11-25T03:15:17.370Z,4.77
2022-11-25T03:15:50.026Z,4.47
2022-11-25T03:16:22.130Z,4.10
2022-11-25T03:16:54.152Z,5.47
2022-11-25T03:17:26.199Z,7.83
2022-11-25T03:17:59.646Z,6.37
2022-11-25T03:18:32.593Z,5.50
2022-11-25T03:19:05.093Z,4.60
2022-11-25T03:19:37.124Z,6.07
2022-11-25T03:20:09.486Z,4.70
2022-11-25T03:20:41.551Z,5.33
2022-11-25T03:21:13.554Z,5.47
2022-11-25T03:21:45.541Z,5.53
2022-11-25T03:22:17.655Z,5.33
2022-11-25T03:22:49.903Z,4.10
2022-11-25T03:23:22.296Z,4.13
2022-11-25T03:23:54.333Z,4.73
2022-11-25T03:24:26.312Z,3.93
2022-11-25T03:24:58.404Z,3.17
2022-11-25T03:25:30.629Z,4.13
2022-11-25T03:26:06.872Z,5.60
2022-11-25T03:26:39.111Z,6.80
2022-11-25T03:27:11.137Z,2.83
2022-11-25T03:27:43.881Z,3.03
2022-11-25T03:28:15.896Z,4.70
2022-11-25T03:28:48.136Z,4.43
2022-11-25T03:29:20.764Z,4.23
2022-11-25T03:29:52.777Z,4.77
2022-11-25T03:30:27.132Z,3.90
2022-11-25T03:31:02.722Z,3.63
2022-11-25T03:31:35.099Z,3.83
2022-11-25T03:32:09.724Z,4.43
2022-11-25T03:32:43.032Z,2.73
2022-11-25T03:33:15.945Z,4.07
2022-11-25T03:33:49.584Z,4.10
2022-11-25T03:34:21.605Z,5.60
2022-11-25T03:34:53.669Z,4.97
2022-11-25T03:35:25.651Z,3.40
2022-11-25T03:35:58.482Z,4.33
2022-11-25T03:36:30.532Z,5.53
2022-11-25T03:37:02.597Z,4.97
2022-11-25T03:37:36.518Z,5.60
2022-11-25T03:38:08.481Z,2.97
2022-11-25T03:38:42.376Z,5.57
2022-11-25T03:39:14.409Z,3.07
2022-11-25T03:39:46.992Z,4.67
2022-11-25T03:40:19.300Z,3.73
2022-11-25T03:40:51.475Z,3.73
2022-11-25T03:41:23.593Z,5.87
2022-11-25T03:41:55.738Z,3.67
2022-11-25T03:42:27.720Z,3.50
2022-11-25T03:43:00.704Z,3.73
2022-11-25T03:43:33.364Z,3.27
2022-11-25T03:44:05.415Z,4.80
2022-11-25T03:44:38.321Z,5.53
2022-11-25T03:45:13.068Z,2.50
2022-11-25T03:45:48.297Z,3.17
2022-11-25T03:46:20.280Z,4.40
2022-11-25T03:46:52.348Z,2.40
2022-11-25T03:47:24.568Z,2.70
2022-11-25T03:47:56.630Z,4.50
2022-11-25T03:48:28.718Z,4.80
2022-11-25T03:49:00.989Z,3.87
2022-11-25T03:49:33.543Z,4.80
2022-11-25T03:50:05.977Z,2.10
2022-11-25T03:50:38.004Z,5.50
2022-11-25T03:51:10.010Z,3.97
2022-11-25T03:51:43.290Z,3.27
2022-11-25T03:52:15.233Z,4.23
2022-11-25T03:52:47.576Z,3.80
2022-11-25T03:53:19.776Z,3.23
2022-11-25T03:53:51.816Z,2.43
2022-11-25T03:54:23.901Z,3.33
2022-11-25T03:55:16.736Z,3.07
2022-11-25T03:55:51.029Z,3.63
2022-11-25T03:56:26.298Z,4.77
2022-11-25T03:56:58.329Z,4.00
2022-11-25T03:57:30.311Z,3.90
2022-11-25T03:58:02.886Z,6.00
2022-11-25T03:58:34.893Z,4.70
2022-11-25T03:59:08.420Z,3.80
2022-11-25T03:59:40.526Z,3.17
2022-11-25T04:00:13.004Z,4.77
2022-11-25T04:00:59.684Z,1.83
2022-11-25T04:01:31.777Z,4.50
2022-11-25T04:02:04.342Z,3.20
2022-11-25T04:02:36.593Z,3.20
2022-11-25T04:03:08.668Z,2.93
2022-11-25T04:03:40.703Z,3.47
2022-11-25T04:04:12.684Z,2.93
2022-11-25T04:04:44.845Z,3.37
2022-11-25T04:05:17.093Z,3.23
2022-11-25T04:05:49.137Z,2.80
2022-11-25T04:06:23.794Z,3.10
2022-11-25T04:06:58.551Z,2.00
2022-11-25T04:07:30.641Z,4.80
2022-11-25T04:08:03.627Z,2.50
2022-11-25T04:08:37.279Z,2.13
2022-11-25T04:09:10.123Z,2.93
2022-11-25T04:09:42.436Z,4.30
2022-11-25T04:10:14.963Z,2.40
2022-11-25T04:10:51.526Z,5.33
2022-11-25T04:11:47.438Z,3.83
2022-11-25T04:12:37.764Z,2.47
2022-11-25T04:13:12.256Z,1.93
2022-11-25T04:13:47.079Z,2.57
2022-11-25T04:14:19.494Z,2.77
2022-11-25T04:14:52.415Z,2.13
2022-11-25T04:15:24.472Z,2.43
2022-11-25T04:16:01.290Z,3.60
2022-11-25T04:16:33.308Z,2.13
2022-11-25T04:17:05.337Z,4.10
2022-11-25T04:17:41.163Z,2.83
2022-11-25T04:18:16.448Z,3.30
2022-11-25T04:18:48.499Z,2.93
2022-11-25T04:19:20.448Z,2.27
2022-11-25T04:19:52.480Z,2.73
2022-11-25T04:20:24.504Z,1.80
2022-11-25T04:21:02.863Z,1.93
2022-11-25T04:21:35.096Z,3.13
2022-11-25T04:22:07.210Z,3.63
2022-11-25T04:22:43.010Z,3.10
2022-11-25T04:23:16.099Z,2.87
2022-11-25T04:23:55.895Z,3.67
2022-11-25T04:24:27.916Z,2.93
2022-11-25T04:24:59.989Z,1.70
2022-11-25T04:25:32.374Z,6.97
2022-11-25T04:26:04.553Z,3.47
2022-11-25T04:26:41.482Z,2.57
2022-11-25T04:27:13.602Z,2.80
2022-11-25T04:27:46.173Z,3.00
2022-11-25T04:28:19.680Z,4.53
2022-11-25T04:28:53.028Z,3.03
2022-11-25T04:29:25.605Z,3.03
2022-11-25T04:29:58.046Z,2.07
2022-11-25T04:30:30.084Z,3.43
2022-11-25T04:31:05.690Z,2.53
2022-11-25T04:31:39.272Z,3.23
2022-11-25T04:32:11.253Z,3.93
2022-11-25T04:32:43.463Z,5.27
2022-11-25T04:33:16.674Z,3.67
2022-11-25T04:33:52.761Z,4.73
2022-11-25T04:34:26.381Z,2.50
2022-11-25T04:34:59.065Z,2.93
2022-11-25T04:35:31.163Z,2.53
2022-11-25T04:36:03.629Z,3.80
2022-11-25T04:36:36.194Z,2.80
2022-11-25T04:37:08.168Z,2.80
2022-11-25T04:37:41.166Z,2.57
2022-11-25T04:38:14.354Z,2.40
2022-11-25T04:38:46.337Z,3.13
2022-11-25T04:39:18.351Z,2.10
2022-11-25T04:39:50.780Z,2.27
2022-11-25T04:40:22.953Z,2.20
2022-11-25T04:41:02.485Z,3.93
2022-11-25T04:41:38.069Z,2.80
2022-11-25T04:42:28.989Z,2.57
2022-11-25T04:43:04.839Z,3.17
2022-11-25T04:43:44.581Z,3.73
2022-11-25T04:44:18.727Z,3.50
2022-11-25T04:45:14.145Z,5.00
2022-11-25T04:46:06.745Z,3.03
2022-11-25T04:46:38.266Z,2.60
2022-11-25T04:47:10.523Z,2.63
2022-11-25T04:47:43.320Z,3.43
2022-11-25T04:48:15.329Z,3.63
2022-11-25T04:48:47.546Z,2.53
2022-11-25T04:49:20.672Z,2.27
2022-11-25T04:49:52.784Z,2.03
2022-11-25T04:50:25.635Z,2.80
2022-11-25T04:51:08.181Z,1.37
2022-11-25T04:51:40.284Z,2.13
2022-11-25T04:52:12.291Z,2.53
2022-11-25T04:52:44.422Z,3.37
2022-11-25T04:53:16.451Z,2.97
2022-11-25T04:53:48.527Z,1.77
2022-11-25T04:54:20.787Z,1.90
2022-11-25T04:54:54.632Z,1.97
2022-11-25T04:55:27.698Z,1.97
2022-11-25T04:56:00.662Z,4.03
2022-11-25T04:56:35.528Z,1.77
2022-11-25T04:57:08.957Z,2.87
2022-11-25T04:57:40.995Z,1.03
2022-11-25T04:58:13.597Z,3.07
2022-11-25T04:59:05.900Z,2.03
2022-11-25T04:59:39.511Z,2.73
2022-11-25T05:00:11.952Z,1.30
2022-11-25T05:00:44.025Z,2.80
2022-11-25T05:01:18.148Z,1.73
2022-11-25T05:01:53.921Z,2.43
2022-11-25T05:02:41.761Z,2.17
2022-11-25T05:03:20.731Z,2.63
2022-11-25T05:03:57.296Z,2.17
2022-11-25T05:04:31.168Z,3.47
2022-11-25T05:05:03.550Z,4.70
2022-11-25T05:05:38.045Z,1.83
2022-11-25T05:06:10.142Z,1.77
2022-11-25T05:06:43.288Z,1.67
2022-11-25T05:07:16.078Z,2.70
2022-11-25T05:07:49.998Z,3.57
2022-11-25T05:08:24.317Z,3.47
2022-11-25T05:08:56.322Z,2.23
2022-11-25T05:09:30.475Z,2.13
2022-11-25T05:10:22.731Z,1.97
2022-11-25T05:10:55.841Z,2.17
2022-11-25T05:11:28.322Z,3.97
2022-11-25T05:12:00.481Z,2.63
2022-11-25T05:12:32.566Z,1.77
2022-11-25T05:13:05.878Z,3.57
2022-11-25T05:13:37.896Z,2.07
2022-11-25T05:14:10.245Z,2.53
2022-11-25T05:14:43.553Z,3.20
2022-11-25T05:15:15.741Z,1.07
2022-11-25T05:15:50.334Z,1.30
2022-11-25T05:16:24.031Z,3.63
2022-11-25T05:16:57.002Z,2.30
2022-11-25T05:17:30.613Z,2.47
2022-11-25T05:18:03.972Z,2.63
2022-11-25T05:18:49.183Z,5.33
2022-11-25T05:19:21.861Z,3.23
2022-11-25T05:19:54.411Z,2.03
2022-11-25T05:20:26.481Z,1.83
2022-11-25T05:21:02.324Z,2.23
2022-11-25T05:21:35.317Z,1.23
2022-11-25T05:22:10.623Z,1.40
2022-11-25T05:22:42.691Z,3.70
2022-11-25T05:23:20.663Z,3.00
2022-11-25T05:23:55.961Z,3.73
2022-11-25T05:24:29.213Z,3.57
2022-11-25T05:25:01.367Z,1.53
2022-11-25T05:25:34.647Z,2.97
2022-11-25T05:26:25.415Z,2.60
2022-11-25T05:26:59.791Z,3.40
2022-11-25T05:27:31.815Z,2.63
2022-11-25T05:28:08.458Z,2.67
2022-11-25T05:28:41.099Z,2.30
2022-11-25T05:29:14.414Z,2.90
2022-11-25T05:29:49.155Z,2.20
2022-11-25T05:30:25.010Z,4.03
2022-11-25T05:30:57.297Z,3.27
2022-11-25T05:31:29.363Z,2.87
2022-11-25T05:32:01.572Z,2.07
2022-11-25T05:32:33.978Z,4.23
2022-11-25T05:33:09.660Z,4.80
2022-11-25T05:33:41.623Z,2.93
2022-11-25T05:34:15.281Z,3.87
2022-11-25T05:34:48.944Z,4.87
2022-11-25T05:35:21.916Z,2.07
2022-11-25T05:35:55.106Z,3.23
2022-11-25T05:36:27.770Z,3.77
2022-11-25T05:36:59.798Z,2.70
2022-11-25T05:37:32.440Z,1.90
2022-11-25T05:38:09.198Z,2.50
2022-11-25T05:38:42.537Z,1.87
2022-11-25T05:39:16.228Z,2.77
2022-11-25T05:40:08.639Z,2.30
2022-11-25T05:41:04.153Z,2.37
2022-11-25T05:41:36.346Z,2.77
2022-11-25T05:42:08.337Z,2.87
2022-11-25T05:42:40.343Z,1.37
2022-11-25T05:43:13.529Z,4.00
2022-11-25T05:43:47.569Z,5.37
2022-11-25T05:44:22.855Z,2.33
2022-11-25T05:44:55.184Z,6.10
2022-11-25T05:45:27.648Z,1.67
2022-11-25T05:46:00.012Z,2.60
2022-11-25T05:46:32.546Z,3.20
2022-11-25T05:47:04.775Z,2.30
2022-11-25T05:47:37.615Z,2.97
2022-11-25T05:48:11.070Z,1.90
2022-11-25T05:48:43.180Z,4.23
2022-11-25T05:49:15.727Z,3.27
2022-11-25T05:49:47.966Z,4.13
2022-11-25T05:50:19.946Z,2.30
2022-11-25T05:51:09.217Z,4.60
2022-11-25T05:51:41.576Z,4.13
2022-11-25T05:52:13.582Z,2.50
2022-11-25T05:52:53.993Z,2.53
2022-11-25T05:53:26.054Z,3.13
2022-11-25T05:53:59.839Z,2.60
2022-11-25T05:54:35.218Z,1.33
2022-11-25T05:55:07.905Z,1.67
2022-11-25T05:55:40.056Z,3.60
2022-11-25T05:56:20.475Z,4.70
2022-11-25T05:56:58.312Z,3.03
2022-11-25T05:57:31.287Z,2.03
2022-11-25T05:58:09.623Z,2.53
2022-11-25T05:58:41.692Z,3.50
2022-11-25T05:59:14.211Z,3.60
2022-11-25T05:59:56.842Z,4.07
2022-11-25T06:00:51.816Z,4.33
2022-11-25T06:01:23.880Z,3.13
2022-11-25T06:01:56.347Z,4.60
2022-11-25T06:02:28.501Z,2.43
2022-11-25T06:03:01.458Z,3.03
2022-11-25T06:03:36.481Z,4.00
2022-11-25T06:04:09.887Z,3.60
2022-11-25T06:04:41.894Z,2.67
2022-11-25T06:05:14.226Z,2.90
2022-11-25T06:05:46.185Z,3.67
2022-11-25T06:06:18.457Z,3.50
2022-11-25T06:06:50.571Z,4.07
2022-11-25T06:07:22.924Z,5.37
2022-11-25T06:07:55.095Z,2.10
2022-11-25T06:08:28.089Z,5.27
2022-11-25T06:09:00.182Z,6.17
2022-11-25T06:09:32.940Z,3.93
2022-11-25T06:10:05.624Z,6.43
2022-11-25T06:10:40.998Z,6.37
2022-11-25T06:11:14.685Z,4.83
2022-11-25T06:11:46.834Z,4.40
2022-11-25T06:12:21.142Z,4.07
2022-11-25T06:12:54.454Z,6.33
2022-11-25T06:13:26.468Z,3.77
2022-11-25T06:13:58.856Z,3.73
2022-11-25T06:14:31.011Z,3.50
2022-11-25T06:15:03.606Z,4.80
2022-11-25T06:15:40.408Z,3.03
2022-11-25T06:16:14.651Z,6.80
2022-11-25T06:16:46.764Z,3.73
2022-11-25T06:17:27.130Z,3.30
2022-11-25T06:18:17.328Z,4.37
2022-11-25T06:18:49.798Z,5.53
2022-11-25T06:19:21.857Z,3.33
2022-11-25T06:19:53.860Z,2.93
2022-11-25T06:20:27.117Z,4.87
2022-11-25T06:20:59.281Z,3.43
2022-11-25T06:21:32.657Z,4.20
2022-11-25T06:22:04.731Z,5.63
2022-11-25T06:22:36.988Z,2.20
2022-11-25T06:23:09.189Z,4.17
2022-11-25T06:23:44.689Z,5.57
2022-11-25T06:24:18.289Z,3.57
2022-11-25T06:24:58.879Z,4.10
2022-11-25T06:25:35.156Z,7.03
2022-11-25T06:26:08.205Z,5.23
2022-11-25T06:26:41.078Z,6.63
2022-11-25T06:27:13.102Z,5.47
2022-11-25T06:28:11.406Z,4.53
2022-11-25T06:28:37.258Z,4.87
2022-11-25T06:29:09.463Z,5.77
2022-11-25T06:29:41.617Z,3.97
2022-11-25T06:30:14.144Z,5.23
2022-11-25T06:30:50.934Z,4.73
2022-11-25T06:31:29.928Z,5.63
2022-11-25T06:32:35.181Z,4.70
2022-11-25T06:33:20.983Z,3.60
2022-11-25T06:33:54.196Z,4.50
2022-11-25T06:34:26.234Z,5.43
2022-11-25T06:34:58.215Z,1.60
2022-11-25T06:35:45.216Z,3.83
2022-11-25T06:36:17.782Z,3.20
2022-11-25T06:36:49.847Z,2.37
2022-11-25T06:37:21.836Z,5.67
2022-11-25T06:37:54.045Z,5.20
2022-11-25T06:38:26.060Z,3.47
2022-11-25T06:38:58.006Z,5.67
2022-11-25T06:39:29.931Z,3.00
2022-11-25T06:40:01.944Z,3.97
2022-11-25T06:40:34.909Z,4.70
2022-11-25T06:41:07.098Z,4.73
2022-11-25T06:41:39.103Z,9.93
2022-11-25T06:42:11.224Z,5.63
2022-11-25T06:42:43.544Z,3.63
2022-11-25T06:43:15.508Z,7.17
2022-11-25T06:43:47.435Z,3.10
2022-11-25T06:44:19.459Z,3.33
2022-11-25T06:44:51.427Z,4.23
2022-11-25T06:45:23.459Z,5.37
2022-11-25T06:45:55.550Z,5.33
2022-11-25T06:46:27.584Z,4.00
2022-11-25T06:46:59.646Z,2.50
2022-11-25T06:47:31.687Z,5.90
2022-11-25T06:48:03.746Z,6.20
2022-11-25T06:48:36.330Z,4.93
2022-11-25T06:49:08.384Z,4.67
2022-11-25T06:49:40.396Z,2.90
2022-11-25T06:50:12.425Z,4.60
2022-11-25T06:50:44.376Z,4.30
2022-11-25T06:51:17.038Z,5.40
2022-11-25T06:51:49.655Z,5.47
2022-11-25T06:52:21.703Z,3.23
2022-11-25T06:52:53.701Z,3.93
2022-11-25T06:53:25.892Z,5.67
2022-11-25T06:53:57.842Z,5.80
2022-11-25T06:54:29.916Z,5.70
2022-11-25T06:55:01.885Z,7.17
2022-11-25T06:55:33.877Z,3.53
2022-11-25T06:56:16.446Z,3.50
2022-11-25T06:56:51.640Z,5.70
2022-11-25T06:57:23.615Z,5.80
2022-11-25T06:58:13.647Z,5.63
2022-11-25T06:58:48.162Z,8.73
2022-11-25T06:59:20.972Z,6.60
2022-11-25T06:59:53.166Z,3.90
2022-11-25T07:00:25.090Z,4.27
2022-11-25T07:01:01.070Z,3.67
2022-11-25T07:01:33.220Z,2.83
2022-11-25T07:02:05.309Z,5.30
2022-11-25T07:02:42.824Z,4.27
2022-11-25T07:03:17.362Z,3.93
2022-11-25T07:03:51.092Z,7.67
2022-11-25T07:04:23.080Z,5.70
2022-11-25T07:04:55.061Z,3.37
2022-11-25T07:05:27.058Z,5.43
2022-11-25T07:05:59.465Z,2.43
2022-11-25T07:06:32.263Z,3.80
2022-11-25T07:07:04.739Z,4.47
2022-11-25T07:07:37.386Z,4.77
2022-11-25T07:08:12.288Z,2.43
2022-11-25T07:08:44.665Z,4.20
2022-11-25T07:09:16.655Z,3.67
2022-11-25T07:09:48.637Z,4.93
2022-11-25T07:10:20.573Z,2.67
2022-11-25T07:10:52.748Z,4.53
2022-11-25T07:11:29.142Z,4.17
2022-11-25T07:12:01.203Z,3.03
2022-11-25T07:12:33.205Z,4.67
2022-11-25T07:13:05.159Z,2.67
2022-11-25T07:13:37.141Z,4.00
2022-11-25T07:14:13.197Z,4.20
2022-11-25T07:14:45.253Z,3.03
2022-11-25T07:15:17.261Z,3.47
2022-11-25T07:15:49.330Z,8.20
2022-11-25T07:16:21.453Z,3.37
2022-11-25T07:16:53.519Z,3.80
2022-11-25T07:17:25.539Z,3.97
2022-11-25T07:17:58.093Z,3.17
2022-11-25T07:18:31.379Z,5.07
2022-11-25T07:19:04.321Z,2.77
2022-11-25T07:19:36.387Z,4.93
2022-11-25T07:20:08.672Z,3.50
2022-11-25T07:20:40.669Z,2.83
2022-11-25T07:21:14.813Z,2.53
2022-11-25T07:21:46.938Z,4.43
2022-11-25T07:22:18.881Z,2.37
2022-11-25T07:22:50.933Z,2.73
2022-11-25T07:23:22.905Z,2.73
2022-11-25T07:23:54.887Z,2.47
2022-11-25T07:24:26.921Z,3.97
2022-11-25T07:24:58.918Z,3.83
2022-11-25T07:25:32.155Z,4.23
2022-11-25T07:26:09.050Z,2.90
2022-11-25T07:26:42.299Z,5.17
2022-11-25T07:27:14.242Z,3.10
2022-11-25T07:27:46.239Z,3.20
2022-11-25T07:28:18.185Z,2.90
2022-11-25T07:28:50.952Z,1.67
2022-11-25T07:29:51.674Z,3.50
2022-11-25T07:31:32.867Z,5.00
2022-11-25T07:32:10.566Z,3.57
2022-11-25T07:32:42.925Z,3.60
2022-11-25T07:33:14.943Z,2.80